Terminal Aerodrome Forecast
Issued by NWS

Home | Current Version | Previous Version | Text Only | Print | Product List | Glossary On
Versions: 1 2 3 4 5 6 7 8 9 10 11 12 13 14 15
000
FTUS45 KGJT 210539
TAFEGE
TAF
KEGE 210539Z 2106/2206 VRB03KT P6SM BKN100
     FM211100 VRB03KT P6SM SCT080
     FM211600 VRB03KT P6SM VCSH BKN150
     FM211800 26005KT P6SM VCTS SCT080CB BKN110
     FM212100 29009KT P6SM VCTS OVC100CB
     FM220000 30008KT P6SM OVC080
      AMD LTD TO CLD VIS AND WIND TIL 211300=

USA.gov is the U.S. government's official web portal to all federal, state and local government web resources and services.